createdAt,value
2018-12-05T00:00:30.669Z,1018.30
2018-12-05T00:01:30.696Z,1018.31
2018-12-05T00:02:30.687Z,1018.30
2018-12-05T00:03:30.664Z,1018.33
2018-12-05T00:04:30.623Z,1018.35
2018-12-05T00:05:30.617Z,1018.32
2018-12-05T00:06:30.608Z,1018.36
2018-12-05T00:07:30.623Z,1018.29
2018-12-05T00:08:30.587Z,1018.24
2018-12-05T00:09:30.572Z,1018.20
2018-12-05T00:10:30.600Z,1018.19
2018-12-05T00:11:30.548Z,1018.18
2018-12-05T00:12:30.559Z,1018.21
2018-12-05T00:13:30.541Z,1018.19
2018-12-05T00:14:30.531Z,1018.19
2018-12-05T00:15:30.502Z,1018.15
2018-12-05T00:16:30.543Z,1018.16
2018-12-05T00:17:30.503Z,1018.12
2018-12-05T00:18:30.470Z,1018.10
2018-12-05T00:19:30.460Z,1018.16
2018-12-05T00:20:30.471Z,1018.18
2018-12-05T00:21:30.445Z,1018.16
2018-12-05T00:22:30.439Z,1018.22
2018-12-05T00:23:30.438Z,1018.25
2018-12-05T00:24:30.407Z,1018.25
2018-12-05T00:25:30.394Z,1018.29
2018-12-05T00:26:30.394Z,1018.29
2018-12-05T00:27:30.376Z,1018.29
2018-12-05T00:28:30.408Z,1018.31
2018-12-05T00:29:30.395Z,1018.30
2018-12-05T00:30:30.337Z,1018.26
2018-12-05T00:31:30.336Z,1018.30
2018-12-05T00:32:30.324Z,1018.27
2018-12-05T00:33:30.347Z,1018.24
2018-12-05T00:34:30.295Z,1018.23
2018-12-05T00:35:30.282Z,1018.24
2018-12-05T00:36:30.326Z,1018.21
2018-12-05T00:37:30.267Z,1018.18
2018-12-05T00:38:30.285Z,1018.19
2018-12-05T00:39:30.254Z,1018.18
2018-12-05T00:40:30.251Z,1018.15
2018-12-05T00:41:30.218Z,1018.13
2018-12-05T00:42:30.224Z,1018.08
2018-12-05T00:43:30.208Z,1018.11
2018-12-05T00:44:30.189Z,1018.08
2018-12-05T00:45:30.189Z,1018.07
2018-12-05T00:46:30.181Z,1018.07
2018-12-05T00:47:30.160Z,1018.06
2018-12-05T00:48:30.155Z,1018.08
2018-12-05T00:49:30.138Z,1018.10
2018-12-05T00:50:30.141Z,1018.11
2018-12-05T00:51:30.142Z,1018.11
2018-12-05T00:52:30.123Z,1018.12
2018-12-05T00:53:30.094Z,1018.09
2018-12-05T00:54:30.092Z,1018.11
2018-12-05T00:55:30.063Z,1018.12
2018-12-05T00:56:30.054Z,1018.15
2018-12-05T00:57:30.072Z,1018.17
2018-12-05T00:58:30.053Z,1018.20
2018-12-05T00:59:30.017Z,1018.13
2018-12-05T01:00:30.011Z,1018.16
2018-12-05T01:01:30.007Z,1018.13
2018-12-05T01:02:30.097Z,1018.13
2018-12-05T01:03:29.984Z,1018.09
2018-12-05T01:04:29.962Z,1018.12
2018-12-05T01:05:29.949Z,1018.09
2018-12-05T01:06:29.960Z,1018.08
2018-12-05T01:07:29.952Z,1018.13
2018-12-05T01:08:29.934Z,1018.13
2018-12-05T01:09:29.907Z,1018.17
2018-12-05T01:10:29.894Z,1018.13
2018-12-05T01:11:29.894Z,1018.17
2018-12-05T01:12:29.928Z,1018.16
2018-12-05T01:13:29.893Z,1018.19
2018-12-05T01:14:29.870Z,1018.21
2018-12-05T01:15:29.856Z,1018.19
2018-12-05T01:16:29.830Z,1018.21
2018-12-05T01:17:29.815Z,1018.19
2018-12-05T01:18:29.827Z,1018.23
2018-12-05T01:19:29.798Z,1018.23
2018-12-05T01:20:29.813Z,1018.21
2018-12-05T01:21:29.770Z,1018.21
2018-12-05T01:22:29.805Z,1018.20
2018-12-05T01:23:29.764Z,1018.22
2018-12-05T01:24:29.785Z,1018.23
2018-12-05T01:25:29.736Z,1018.20
2018-12-05T01:26:29.715Z,1018.18
2018-12-05T01:27:29.720Z,1018.16
2018-12-05T01:28:29.714Z,1018.15
2018-12-05T01:29:29.733Z,1018.13
2018-12-05T01:30:29.671Z,1018.12
2018-12-05T01:31:29.665Z,1018.11
2018-12-05T01:32:29.650Z,1018.05
2018-12-05T01:33:29.650Z,1018.08
2018-12-05T01:34:29.661Z,1018.04
2018-12-05T01:35:29.612Z,1018.07
2018-12-05T01:36:29.604Z,1018.09
2018-12-05T01:37:29.621Z,1018.12
2018-12-05T01:38:29.598Z,1018.06
2018-12-05T01:39:29.589Z,1018.07
2018-12-05T01:40:29.558Z,1018.09
2018-12-05T01:41:29.600Z,1018.09
2018-12-05T01:42:29.542Z,1018.03
2018-12-05T01:43:29.525Z,1018.04
2018-12-05T01:44:29.526Z,1018.05
2018-12-05T01:45:29.501Z,1018.06
2018-12-05T01:46:29.556Z,1018.03
2018-12-05T01:47:29.500Z,1018.01
2018-12-05T01:48:29.508Z,1017.98
2018-12-05T01:49:29.516Z,1018.00
2018-12-05T01:50:29.452Z,1018.04
2018-12-05T01:51:29.436Z,1018.07
2018-12-05T01:52:29.443Z,1018.07
2018-12-05T01:53:29.452Z,1018.02
2018-12-05T01:54:29.417Z,1018.04
2018-12-05T01:55:29.394Z,1018.07
2018-12-05T01:56:29.381Z,1018.10
2018-12-05T01:57:29.406Z,1018.09
2018-12-05T01:58:29.403Z,1018.14
2018-12-05T01:59:29.357Z,1018.10
2018-12-05T02:00:29.332Z,1018.10
2018-12-05T02:01:29.337Z,1018.12
2018-12-05T02:02:29.326Z,1018.06
2018-12-05T02:03:29.312Z,1018.13
2018-12-05T02:04:29.309Z,1018.09
2018-12-05T02:05:29.317Z,1018.09
2018-12-05T02:06:29.272Z,1018.07
2018-12-05T02:07:29.254Z,1018.10
2018-12-05T02:08:29.241Z,1018.09
2018-12-05T02:09:36.761Z,1018.06
2018-12-05T02:10:36.783Z,1018.07
2018-12-05T02:11:36.747Z,1018.06
2018-12-05T02:12:36.737Z,1018.05
2018-12-05T02:13:36.722Z,1018.07
2018-12-05T02:14:38.181Z,1018.12
2018-12-05T02:15:29.178Z,1018.13
2018-12-05T02:16:29.158Z,1018.08
2018-12-05T02:17:29.146Z,1018.11
2018-12-05T02:18:29.130Z,1018.08
2018-12-05T02:19:29.154Z,1018.08
2018-12-05T02:20:29.143Z,1018.08
2018-12-05T02:21:29.101Z,1018.09
2018-12-05T02:22:29.107Z,1018.08
2018-12-05T02:23:29.143Z,1018.07
2018-12-05T02:24:29.079Z,1018.04
2018-12-05T02:25:29.068Z,1018.00
2018-12-05T02:26:29.077Z,1018.01
2018-12-05T02:27:29.056Z,1018.01
2018-12-05T02:28:29.023Z,1018.03
2018-12-05T02:29:29.012Z,1018.07
2018-12-05T02:30:29.014Z,1018.05
2018-12-05T02:31:28.990Z,1018.05
2018-12-05T02:32:28.994Z,1018.05
2018-12-05T02:33:28.962Z,1018.04
2018-12-05T02:34:28.996Z,1018.05
2018-12-05T02:35:28.957Z,1018.07
2018-12-05T02:36:28.933Z,1018.05
2018-12-05T02:37:28.919Z,1018.05
2018-12-05T02:38:28.912Z,1018.03
2018-12-05T02:39:28.897Z,1018.08
2018-12-05T02:40:28.900Z,1018.07
2018-12-05T02:41:28.871Z,1018.07
2018-12-05T02:42:28.896Z,1018.08
2018-12-05T02:43:28.882Z,1018.10
2018-12-05T02:44:28.862Z,1018.05
2018-12-05T02:45:28.880Z,1018.08
2018-12-05T02:46:28.839Z,1018.05
2018-12-05T02:47:28.822Z,1018.01
2018-12-05T02:48:28.822Z,1018.03
2018-12-05T02:49:28.795Z,1018.02
2018-12-05T02:50:28.839Z,1017.99
2018-12-05T02:51:28.780Z,1017.98
2018-12-05T02:52:28.751Z,1017.96
2018-12-05T02:53:28.739Z,1017.93
2018-12-05T02:54:28.735Z,1017.95
2018-12-05T02:55:28.734Z,1017.92
2018-12-05T02:56:28.718Z,1017.90
2018-12-05T02:57:28.717Z,1017.93
2018-12-05T02:58:28.683Z,1017.94
2018-12-05T02:59:28.676Z,1017.91
2018-12-05T03:00:28.681Z,1017.86
2018-12-05T03:01:28.700Z,1017.90
2018-12-05T03:02:28.639Z,1017.89
2018-12-05T03:03:28.627Z,1017.89
2018-12-05T03:04:28.612Z,1017.86
2018-12-05T03:05:28.609Z,1017.86
2018-12-05T03:06:28.611Z,1017.85
2018-12-05T03:07:28.580Z,1017.89
2018-12-05T03:08:28.574Z,1017.88
2018-12-05T03:09:28.560Z,1017.93
2018-12-05T03:10:28.565Z,1017.95
2018-12-05T03:11:28.547Z,1017.98
2018-12-05T03:12:28.523Z,1017.96
2018-12-05T03:13:28.570Z,1017.97
2018-12-05T03:14:28.499Z,1017.95
2018-12-05T03:15:28.521Z,1017.97
2018-12-05T03:16:28.516Z,1017.92
2018-12-05T03:17:28.483Z,1017.95
2018-12-05T03:18:28.455Z,1017.96
2018-12-05T03:19:28.446Z,1017.89
2018-12-05T03:20:28.455Z,1017.92
2018-12-05T03:21:28.439Z,1017.94
2018-12-05T03:22:28.415Z,1018.00
2018-12-05T03:23:28.415Z,1017.97
2018-12-05T03:24:28.388Z,1017.94
2018-12-05T03:25:28.435Z,1017.91
2018-12-05T03:26:28.410Z,1017.92
2018-12-05T03:27:28.365Z,1017.93
2018-12-05T03:28:28.375Z,1017.93
2018-12-05T03:29:28.361Z,1017.90
2018-12-05T03:30:28.326Z,1017.93
2018-12-05T03:31:28.323Z,1017.90
2018-12-05T03:32:28.346Z,1017.90
2018-12-05T03:33:28.313Z,1017.85
2018-12-05T03:34:28.308Z,1017.85
2018-12-05T03:35:28.268Z,1017.88
2018-12-05T03:36:28.275Z,1017.88
2018-12-05T03:37:28.241Z,1017.94
2018-12-05T03:38:28.247Z,1017.97
2018-12-05T03:39:28.221Z,1017.92
2018-12-05T03:40:28.234Z,1017.91
2018-12-05T03:41:28.240Z,1017.90
2018-12-05T03:42:28.193Z,1017.89
2018-12-05T03:43:28.197Z,1017.94
2018-12-05T03:44:28.168Z,1017.91
2018-12-05T03:45:28.156Z,1017.94
2018-12-05T03:46:28.173Z,1017.90
2018-12-05T03:47:28.162Z,1017.89
2018-12-05T03:48:28.167Z,1017.89
2018-12-05T03:49:28.112Z,1017.90
2018-12-05T03:50:28.107Z,1017.92
2018-12-05T03:51:28.092Z,1017.91
2018-12-05T03:52:28.090Z,1017.96
2018-12-05T03:53:28.066Z,1017.91
2018-12-05T03:54:28.057Z,1017.89
2018-12-05T03:55:28.043Z,1017.89
2018-12-05T03:56:28.056Z,1017.86
2018-12-05T03:57:28.080Z,1017.87
2018-12-05T03:58:28.010Z,1017.89
2018-12-05T03:59:27.995Z,1017.87
2018-12-05T04:00:28.010Z,1017.89
2018-12-05T04:01:27.976Z,1017.83
2018-12-05T04:02:27.995Z,1017.89
2018-12-05T04:03:27.950Z,1017.88
2018-12-05T04:04:27.954Z,1017.96
2018-12-05T04:05:27.980Z,1017.92
2018-12-05T04:06:27.943Z,1017.91
2018-12-05T04:07:27.920Z,1017.92
2018-12-05T04:08:27.897Z,1017.92
2018-12-05T04:09:27.888Z,1017.89
2018-12-05T04:10:27.872Z,1017.90
2018-12-05T04:11:27.860Z,1017.89
2018-12-05T04:12:27.865Z,1017.92
2018-12-05T04:13:27.871Z,1017.90
2018-12-05T04:14:27.867Z,1017.89
2018-12-05T04:15:27.815Z,1017.92
2018-12-05T04:16:27.807Z,1017.88
2018-12-05T04:17:27.834Z,1017.96
2018-12-05T04:18:27.787Z,1017.95
2018-12-05T04:19:27.789Z,1017.97
2018-12-05T04:20:27.798Z,1017.96
2018-12-05T04:21:27.777Z,1018.00
2018-12-05T04:22:27.784Z,1018.01
2018-12-05T04:23:27.727Z,1018.01
2018-12-05T04:24:27.720Z,1018.00
2018-12-05T04:25:27.705Z,1018.02
2018-12-05T04:26:27.815Z,1017.96
2018-12-05T04:27:27.727Z,1017.99
2018-12-05T04:28:27.672Z,1018.01
2018-12-05T04:29:27.711Z,1018.01
2018-12-05T04:30:27.656Z,1018.06
2018-12-05T04:31:27.699Z,1018.01
2018-12-05T04:32:27.651Z,1018.01
2018-12-05T04:33:27.631Z,1017.97
2018-12-05T04:34:27.604Z,1018.00
2018-12-05T04:35:27.607Z,1017.98
2018-12-05T04:36:27.613Z,1017.98
2018-12-05T04:37:27.594Z,1017.94
2018-12-05T04:38:27.566Z,1017.91
2018-12-05T04:39:27.547Z,1017.90
2018-12-05T04:40:27.537Z,1017.93
2018-12-05T04:41:27.554Z,1017.93
2018-12-05T04:42:27.543Z,1017.93
2018-12-05T04:43:27.528Z,1017.89
2018-12-05T04:44:27.494Z,1017.88
2018-12-05T04:45:27.481Z,1017.92
2018-12-05T04:46:27.469Z,1017.90
2018-12-05T04:47:27.457Z,1017.89
2018-12-05T04:48:27.460Z,1017.85
2018-12-05T04:49:27.539Z,1017.83
2018-12-05T04:50:27.447Z,1017.86
2018-12-05T04:51:27.434Z,1017.84
2018-12-05T04:52:27.453Z,1017.78
2018-12-05T04:53:27.419Z,1017.80
2018-12-05T04:54:27.408Z,1017.74
2018-12-05T04:55:27.389Z,1017.78
2018-12-05T04:56:27.371Z,1017.76
2018-12-05T04:57:27.351Z,1017.78
2018-12-05T04:58:27.350Z,1017.77
2018-12-05T04:59:27.323Z,1017.77
2018-12-05T05:00:27.313Z,1017.77
2018-12-05T05:01:27.301Z,1017.75
2018-12-05T05:02:27.292Z,1017.78
2018-12-05T05:03:27.293Z,1017.76
2018-12-05T05:04:27.289Z,1017.75
2018-12-05T05:05:27.271Z,1017.70
2018-12-05T05:06:27.265Z,1017.75
2018-12-05T05:07:27.234Z,1017.78
2018-12-05T05:08:27.260Z,1017.78
2018-12-05T05:09:27.216Z,1017.81
2018-12-05T05:10:27.201Z,1017.78
2018-12-05T05:11:27.205Z,1017.80
2018-12-05T05:12:27.212Z,1017.81
2018-12-05T05:13:27.183Z,1017.78
2018-12-05T05:14:27.158Z,1017.83
2018-12-05T05:15:27.166Z,1017.82
2018-12-05T05:16:27.137Z,1017.77
2018-12-05T05:17:27.124Z,1017.75
2018-12-05T05:18:27.127Z,1017.78
2018-12-05T05:19:27.103Z,1017.74
2018-12-05T05:20:27.103Z,1017.79
2018-12-05T05:21:27.152Z,1017.78
2018-12-05T05:22:27.071Z,1017.77
2018-12-05T05:23:27.079Z,1017.77
2018-12-05T05:24:27.049Z,1017.77
2018-12-05T05:25:27.052Z,1017.76
2018-12-05T05:26:27.057Z,1017.74
2018-12-05T05:27:27.035Z,1017.77
2018-12-05T05:28:27.025Z,1017.78
2018-12-05T05:29:26.983Z,1017.76
2018-12-05T05:30:26.981Z,1017.74
2018-12-05T05:31:26.965Z,1017.70
2018-12-05T05:32:26.951Z,1017.69
2018-12-05T05:33:26.959Z,1017.62
2018-12-05T05:34:26.972Z,1017.61
2018-12-05T05:35:26.920Z,1017.61
2018-12-05T05:36:26.946Z,1017.59
2018-12-05T05:37:26.913Z,1017.62
2018-12-05T05:38:26.917Z,1017.64
2018-12-05T05:39:26.883Z,1017.66
2018-12-05T05:40:26.879Z,1017.67
2018-12-05T05:41:26.865Z,1017.67
2018-12-05T05:42:26.861Z,1017.67
2018-12-05T05:43:26.875Z,1017.63
2018-12-05T05:44:26.838Z,1017.61
2018-12-05T05:45:26.825Z,1017.61
2018-12-05T05:46:26.796Z,1017.61
2018-12-05T05:47:26.786Z,1017.64
2018-12-05T05:48:26.832Z,1017.60
2018-12-05T05:49:26.810Z,1017.65
2018-12-05T05:50:26.747Z,1017.65
2018-12-05T05:51:26.770Z,1017.67
2018-12-05T05:52:26.759Z,1017.63
2018-12-05T05:53:26.735Z,1017.66
2018-12-05T05:54:26.715Z,1017.67
2018-12-05T05:55:26.731Z,1017.65
2018-12-05T05:56:26.693Z,1017.65
2018-12-05T05:57:26.673Z,1017.70
2018-12-05T05:58:26.676Z,1017.64
2018-12-05T05:59:26.649Z,1017.66
2018-12-05T06:00:26.638Z,1017.65
2018-12-05T06:01:26.631Z,1017.58
2018-12-05T06:02:26.635Z,1017.66
2018-12-05T06:03:26.640Z,1017.67
2018-12-05T06:04:26.607Z,1017.70
2018-12-05T06:05:26.609Z,1017.73
2018-12-05T06:06:26.603Z,1017.68
2018-12-05T06:07:26.567Z,1017.66
2018-12-05T06:08:26.580Z,1017.71
2018-12-05T06:09:26.537Z,1017.70
2018-12-05T06:10:26.579Z,1017.69
2018-12-05T06:11:26.518Z,1017.70
2018-12-05T06:12:26.534Z,1017.61
2018-12-05T06:13:26.499Z,1017.66
2018-12-05T06:14:26.506Z,1017.67
2018-12-05T06:15:34.010Z,1017.61
2018-12-05T06:16:26.467Z,1017.66
2018-12-05T06:17:33.972Z,1017.71
2018-12-05T06:18:26.435Z,1017.68
2018-12-05T06:19:26.434Z,1017.68
2018-12-05T06:20:26.612Z,1017.67
2018-12-05T06:21:26.419Z,1017.69
2018-12-05T06:22:26.390Z,1017.68
2018-12-05T06:23:26.380Z,1017.62
2018-12-05T06:24:26.398Z,1017.60
2018-12-05T06:25:26.361Z,1017.64
2018-12-05T06:26:26.348Z,1017.62
2018-12-05T06:27:26.335Z,1017.61
2018-12-05T06:28:26.325Z,1017.66
2018-12-05T06:29:26.329Z,1017.66
2018-12-05T06:30:26.326Z,1017.71
2018-12-05T06:31:26.291Z,1017.71
2018-12-05T06:32:26.276Z,1017.75
2018-12-05T06:33:26.299Z,1017.80
2018-12-05T06:34:26.269Z,1017.87
2018-12-05T06:35:26.265Z,1017.88
2018-12-05T06:36:26.246Z,1017.92
2018-12-05T06:37:26.257Z,1017.87
2018-12-05T06:38:26.221Z,1017.88
2018-12-05T06:39:26.217Z,1017.90
2018-12-05T06:40:26.188Z,1017.91
2018-12-05T06:41:26.203Z,1017.91
2018-12-05T06:42:26.172Z,1017.93
2018-12-05T06:43:26.158Z,1017.94
2018-12-05T06:44:26.188Z,1017.95
2018-12-05T06:45:26.142Z,1017.93
2018-12-05T06:46:26.144Z,1017.95
2018-12-05T06:47:27.890Z,1017.90
2018-12-05T06:48:26.107Z,1017.93
2018-12-05T06:49:26.099Z,1017.88
2018-12-05T06:50:26.103Z,1017.88
2018-12-05T06:51:26.063Z,1017.82
2018-12-05T06:52:26.056Z,1017.87
2018-12-05T06:53:26.041Z,1017.88
2018-12-05T06:54:26.059Z,1017.85
2018-12-05T06:55:26.029Z,1017.83
2018-12-05T06:56:26.025Z,1017.84
2018-12-05T06:57:26.000Z,1017.81
2018-12-05T06:58:25.992Z,1017.82
2018-12-05T06:59:25.998Z,1017.81
2018-12-05T07:00:26.004Z,1017.83
2018-12-05T07:01:25.955Z,1017.87
2018-12-05T07:02:25.940Z,1017.82
2018-12-05T07:03:25.934Z,1017.85
2018-12-05T07:04:25.982Z,1017.86
2018-12-05T07:05:25.929Z,1017.86
2018-12-05T07:06:25.907Z,1017.90
2018-12-05T07:07:25.899Z,1017.90
2018-12-05T07:08:25.873Z,1017.92
2018-12-05T07:09:25.877Z,1017.94
2018-12-05T07:10:25.869Z,1017.96
2018-12-05T07:11:25.864Z,1017.94
2018-12-05T07:12:25.846Z,1017.96
2018-12-05T07:13:25.823Z,1017.95
2018-12-05T07:14:25.817Z,1017.96
2018-12-05T07:15:25.826Z,1017.95
2018-12-05T07:16:25.795Z,1017.96
2018-12-05T07:17:25.775Z,1018.00
2018-12-05T07:18:25.760Z,1018.03
2018-12-05T07:19:25.762Z,1018.01
2018-12-05T07:20:25.753Z,1018.05
2018-12-05T07:21:25.736Z,1018.04
2018-12-05T07:22:25.743Z,1018.05
2018-12-05T07:23:25.744Z,1018.02
2018-12-05T07:24:25.714Z,1018.03
2018-12-05T07:25:25.682Z,1017.99
2018-12-05T07:26:25.713Z,1017.97
2018-12-05T07:27:25.667Z,1017.92
2018-12-05T07:28:25.650Z,1017.95
2018-12-05T07:29:25.685Z,1017.92
2018-12-05T07:30:29.416Z,1017.92
2018-12-05T07:31:25.616Z,1017.88
2018-12-05T07:32:25.601Z,1017.89
2018-12-05T07:33:25.645Z,1017.86
2018-12-05T07:34:25.580Z,1017.80
2018-12-05T07:35:25.582Z,1017.83
2018-12-05T07:36:25.602Z,1017.83
2018-12-05T07:37:25.575Z,1017.81
2018-12-05T07:38:25.574Z,1017.81
2018-12-05T07:39:25.541Z,1017.81
2018-12-05T07:40:25.527Z,1017.86
2018-12-05T07:41:25.503Z,1017.85
2018-12-05T07:42:25.519Z,1017.78
2018-12-05T07:43:25.485Z,1017.83
2018-12-05T07:44:25.474Z,1017.87
2018-12-05T07:45:25.489Z,1017.86
2018-12-05T07:46:25.486Z,1017.84
2018-12-05T07:47:25.434Z,1017.84
2018-12-05T07:48:25.423Z,1017.83
2018-12-05T07:49:26.285Z,1017.83
2018-12-05T07:50:25.415Z,1017.83
2018-12-05T07:51:25.412Z,1017.83
2018-12-05T07:52:25.377Z,1017.83
2018-12-05T07:53:25.379Z,1017.82
2018-12-05T07:54:25.361Z,1017.83
2018-12-05T07:55:25.370Z,1017.80
2018-12-05T07:56:25.386Z,1017.79
2018-12-05T07:57:25.359Z,1017.79
2018-12-05T07:58:25.318Z,1017.77
2018-12-05T07:59:25.307Z,1017.75
2018-12-05T08:00:25.301Z,1017.72
2018-12-05T08:01:25.324Z,1017.73
2018-12-05T08:02:25.294Z,1017.73
2018-12-05T08:03:25.282Z,1017.71
2018-12-05T08:04:25.300Z,1017.67
2018-12-05T08:05:25.269Z,1017.69
2018-12-05T08:06:25.222Z,1017.66
2018-12-05T08:07:25.221Z,1017.71
2018-12-05T08:08:25.219Z,1017.67
2018-12-05T08:09:25.227Z,1017.67
2018-12-05T08:10:25.186Z,1017.65
2018-12-05T08:11:25.182Z,1017.66
2018-12-05T08:12:25.152Z,1017.64
2018-12-05T08:13:25.166Z,1017.62
2018-12-05T08:14:25.128Z,1017.61
2018-12-05T08:15:25.170Z,1017.58
2018-12-05T08:16:25.123Z,1017.59
2018-12-05T08:17:25.103Z,1017.58
2018-12-05T08:18:25.087Z,1017.56
2018-12-05T08:19:25.157Z,1017.57
2018-12-05T08:20:25.093Z,1017.59
2018-12-05T08:21:25.071Z,1017.64
2018-12-05T08:22:25.048Z,1017.60
2018-12-05T08:23:25.055Z,1017.59
2018-12-05T08:24:25.053Z,1017.61
2018-12-05T08:25:25.032Z,1017.59
2018-12-05T08:26:24.999Z,1017.58
2018-12-05T08:27:24.988Z,1017.60
2018-12-05T08:28:24.986Z,1017.59
2018-12-05T08:29:24.963Z,1017.54
2018-12-05T08:30:24.961Z,1017.53
2018-12-05T08:31:24.942Z,1017.56
2018-12-05T08:32:24.951Z,1017.52
2018-12-05T08:33:25.001Z,1017.49
2018-12-05T08:34:24.938Z,1017.47
2018-12-05T08:35:24.945Z,1017.47
2018-12-05T08:36:24.897Z,1017.54
2018-12-05T08:37:24.875Z,1017.53
2018-12-05T08:38:24.878Z,1017.51
2018-12-05T08:39:24.869Z,1017.54
2018-12-05T08:40:24.869Z,1017.58
2018-12-05T08:41:24.853Z,1017.56
2018-12-05T08:42:24.815Z,1017.56
2018-12-05T08:43:24.808Z,1017.55
2018-12-05T08:44:24.792Z,1017.54
2018-12-05T08:45:24.813Z,1017.51
2018-12-05T08:46:24.794Z,1017.51
2018-12-05T08:47:24.769Z,1017.53
2018-12-05T08:48:24.812Z,1017.48
2018-12-05T08:49:24.758Z,1017.48
2018-12-05T08:50:24.724Z,1017.48
2018-12-05T08:51:24.789Z,1017.47
2018-12-05T08:52:24.712Z,1017.40
2018-12-05T08:53:24.715Z,1017.40
2018-12-05T08:54:24.719Z,1017.40
2018-12-05T08:55:24.701Z,1017.34
2018-12-05T08:56:24.701Z,1017.31
2018-12-05T08:57:24.680Z,1017.34
2018-12-05T08:58:24.644Z,1017.36
2018-12-05T08:59:24.624Z,1017.36
2018-12-05T09:00:24.622Z,1017.35
2018-12-05T09:01:24.639Z,1017.31
2018-12-05T09:02:24.628Z,1017.30
2018-12-05T09:03:24.580Z,1017.32
2018-12-05T09:04:24.590Z,1017.26
2018-12-05T09:05:24.590Z,1017.26
2018-12-05T09:06:24.564Z,1017.25
2018-12-05T09:07:24.571Z,1017.21
2018-12-05T09:08:24.526Z,1017.29
2018-12-05T09:09:24.582Z,1017.22
2018-12-05T09:10:24.512Z,1017.23
2018-12-05T09:11:24.501Z,1017.21
2018-12-05T09:12:24.483Z,1017.28
2018-12-05T09:13:24.469Z,1017.22
2018-12-05T09:14:28.749Z,1017.26
2018-12-05T09:15:24.458Z,1017.30
2018-12-05T09:16:24.454Z,1017.28
2018-12-05T09:17:24.482Z,1017.26
2018-12-05T09:18:24.435Z,1017.27
2018-12-05T09:19:24.404Z,1017.23
2018-12-05T09:20:24.395Z,1017.21
2018-12-05T09:21:24.412Z,1017.09
2018-12-05T09:22:24.367Z,1017.07
2018-12-05T09:23:24.361Z,1017.07
2018-12-05T09:24:24.427Z,1017.08
2018-12-05T09:25:24.337Z,1017.13
2018-12-05T09:26:24.324Z,1017.14
2018-12-05T09:27:24.329Z,1017.15
2018-12-05T09:28:24.371Z,1017.09
2018-12-05T09:29:24.302Z,1017.11
2018-12-05T09:30:24.301Z,1017.14
2018-12-05T09:31:24.275Z,1017.14
2018-12-05T09:32:24.299Z,1017.14
2018-12-05T09:33:24.243Z,1017.17
2018-12-05T09:34:24.232Z,1017.18
2018-12-05T09:35:24.287Z,1017.11
2018-12-05T09:36:24.212Z,1017.18
2018-12-05T09:37:24.214Z,1017.09
2018-12-05T09:38:24.200Z,1017.19
2018-12-05T09:39:24.189Z,1017.15
2018-12-05T09:40:24.165Z,1017.13
2018-12-05T09:41:24.183Z,1017.14
2018-12-05T09:42:24.172Z,1017.05
2018-12-05T09:43:24.132Z,1017.01
2018-12-05T09:44:24.144Z,1016.96
2018-12-05T09:45:24.115Z,1016.99
2018-12-05T09:46:24.122Z,1017.02
2018-12-05T09:47:24.101Z,1017.06
2018-12-05T09:48:24.077Z,1017.00
2018-12-05T09:49:24.063Z,1017.02
2018-12-05T09:50:24.064Z,1017.04
2018-12-05T09:51:24.048Z,1017.00
2018-12-05T09:52:24.075Z,1016.99
2018-12-05T09:53:24.023Z,1017.02
2018-12-05T09:54:24.025Z,1017.02
2018-12-05T09:55:23.996Z,1017.05
2018-12-05T09:56:23.988Z,1016.98
2018-12-05T09:57:23.991Z,1016.98
2018-12-05T09:58:23.989Z,1016.97
2018-12-05T09:59:23.970Z,1016.95
2018-12-05T10:00:23.956Z,1016.92
2018-12-05T10:01:23.940Z,1016.87
2018-12-05T10:02:23.935Z,1016.87
2018-12-05T10:03:23.915Z,1016.85
2018-12-05T10:04:23.918Z,1016.83
2018-12-05T10:05:23.885Z,1016.85
2018-12-05T10:06:23.918Z,1016.87
2018-12-05T10:07:23.958Z,1016.83
2018-12-05T10:08:23.879Z,1016.84
2018-12-05T10:09:23.853Z,1016.81
2018-12-05T10:10:23.832Z,1016.77
2018-12-05T10:11:23.820Z,1016.74
2018-12-05T10:12:23.821Z,1016.74
2018-12-05T10:13:23.793Z,1016.71
2018-12-05T10:14:23.779Z,1016.74
2018-12-05T10:15:23.776Z,1016.71
2018-12-05T10:16:23.782Z,1016.71
2018-12-05T10:17:23.771Z,1016.69
2018-12-05T10:18:23.745Z,1016.67
2018-12-05T10:19:23.749Z,1016.67
2018-12-05T10:20:23.713Z,1016.64
2018-12-05T10:21:23.704Z,1016.67
2018-12-05T10:22:23.726Z,1016.61
2018-12-05T10:23:23.740Z,1016.61
2018-12-05T10:24:32.750Z,1016.57
2018-12-05T10:25:31.200Z,1016.56
2018-12-05T10:26:31.188Z,1016.53
2018-12-05T10:27:32.466Z,1016.52
2018-12-05T10:28:31.165Z,1016.53
2018-12-05T10:29:23.624Z,1016.57
2018-12-05T10:30:23.602Z,1016.54
2018-12-05T10:31:23.591Z,1016.52
2018-12-05T10:32:23.582Z,1016.53
2018-12-05T10:33:23.584Z,1016.51
2018-12-05T10:34:31.097Z,1016.48
2018-12-05T10:35:23.562Z,1016.44
2018-12-05T10:36:23.544Z,1016.43
2018-12-05T10:37:23.553Z,1016.40
2018-12-05T10:38:23.531Z,1016.42
2018-12-05T10:39:23.511Z,1016.41
2018-12-05T10:40:23.519Z,1016.36
2018-12-05T10:41:23.501Z,1016.33
2018-12-05T10:42:23.528Z,1016.34
2018-12-05T10:43:23.470Z,1016.33
2018-12-05T10:44:23.448Z,1016.34
2018-12-05T10:45:23.440Z,1016.33
2018-12-05T10:46:23.424Z,1016.37
2018-12-05T10:47:23.413Z,1016.36
2018-12-05T10:48:23.418Z,1016.38
2018-12-05T10:49:23.399Z,1016.31
2018-12-05T10:50:23.398Z,1016.26
2018-12-05T10:51:23.380Z,1016.28
2018-12-05T10:52:23.381Z,1016.23
2018-12-05T10:53:23.370Z,1016.18
2018-12-05T10:54:23.373Z,1016.18
2018-12-05T10:55:23.324Z,1016.17
2018-12-05T10:56:23.318Z,1016.15
2018-12-05T10:57:23.348Z,1016.13
2018-12-05T10:58:23.331Z,1016.13
2018-12-05T10:59:23.277Z,1016.10
2018-12-05T11:00:23.312Z,1016.08
2018-12-05T11:01:23.286Z,1016.09
2018-12-05T11:02:23.247Z,1016.14
2018-12-05T11:03:23.953Z,1016.12
2018-12-05T11:04:23.237Z,1016.13
2018-12-05T11:05:23.215Z,1016.06
2018-12-05T11:06:23.198Z,1016.10
2018-12-05T11:07:23.197Z,1016.06
2018-12-05T11:08:23.206Z,1015.99
2018-12-05T11:09:23.164Z,1015.96
2018-12-05T11:10:23.153Z,1015.96
2018-12-05T11:11:23.144Z,1015.95
2018-12-05T11:12:23.161Z,1015.94
2018-12-05T11:13:23.149Z,1015.94
2018-12-05T11:14:23.123Z,1015.95
2018-12-05T11:15:23.102Z,1015.92
2018-12-05T11:16:23.089Z,1015.90
2018-12-05T11:17:23.077Z,1015.92
2018-12-05T11:18:23.077Z,1015.81
2018-12-05T11:19:23.082Z,1015.82
2018-12-05T11:20:23.055Z,1015.87
2018-12-05T11:21:23.055Z,1015.82
2018-12-05T11:22:23.019Z,1015.82
2018-12-05T11:23:23.037Z,1015.81
2018-12-05T11:24:23.031Z,1015.80
2018-12-05T11:25:22.987Z,1015.80
2018-12-05T11:26:22.998Z,1015.81
2018-12-05T11:27:22.961Z,1015.76
2018-12-05T11:28:22.983Z,1015.75
2018-12-05T11:29:23.010Z,1015.75
2018-12-05T11:30:22.927Z,1015.75
2018-12-05T11:31:22.918Z,1015.75
2018-12-05T11:32:22.914Z,1015.73
2018-12-05T11:33:22.949Z,1015.69
2018-12-05T11:34:22.891Z,1015.69
2018-12-05T11:35:22.879Z,1015.66
2018-12-05T11:36:22.899Z,1015.67
2018-12-05T11:37:22.854Z,1015.62
2018-12-05T11:38:22.870Z,1015.65
2018-12-05T11:39:22.884Z,1015.60
2018-12-05T11:40:22.816Z,1015.62
2018-12-05T11:41:22.809Z,1015.55
2018-12-05T11:42:22.796Z,1015.53
2018-12-05T11:43:22.808Z,1015.51
2018-12-05T11:44:22.771Z,1015.48
2018-12-05T11:45:22.809Z,1015.46
2018-12-05T11:46:22.779Z,1015.45
2018-12-05T11:47:22.739Z,1015.41
2018-12-05T11:48:22.779Z,1015.46
2018-12-05T11:49:22.748Z,1015.45
2018-12-05T11:50:22.713Z,1015.40
2018-12-05T11:51:22.708Z,1015.41
2018-12-05T11:52:22.719Z,1015.38
2018-12-05T11:53:22.674Z,1015.33
2018-12-05T11:54:22.675Z,1015.29
2018-12-05T11:55:22.698Z,1015.29
2018-12-05T11:56:22.681Z,1015.27
2018-12-05T11:57:22.636Z,1015.23
2018-12-05T11:58:22.616Z,1015.22
2018-12-05T11:59:22.631Z,1015.21
2018-12-05T12:00:22.593Z,1015.17
2018-12-05T12:01:22.600Z,1015.17
2018-12-05T12:02:22.569Z,1015.16
2018-12-05T12:03:22.558Z,1015.16
2018-12-05T12:04:22.561Z,1015.17
2018-12-05T12:05:22.544Z,1015.16